Weather observations for the past three days for
Galliano, South Lafourche Airport
| Date | Time (cdt) | Wind (kph) | Vis. (km) | Weather | Sky Cond. | Temperature (ºC) | Relative Humidity | Wind Chill (°C) | Heat Index (°C) | Pressure | Precipitation (cm) | ||||||
|---|---|---|---|---|---|---|---|---|---|---|---|---|---|---|---|---|---|
| Air | Dwpt | 6 hour | altimeter (cm) | sea level (mb) | 1 hr | 3 hr | 6 hr | ||||||||||
| Max. | Min. | ||||||||||||||||
| 04 | 01:15 | Calm | 16.09 | Fair | CLR | 10.4 | 8.6 | 89% | 76.45 | 0.0 | |||||||
| 04 | 00:55 | Calm | 16.09 | Fair | CLR | 11.3 | 9 | 21.5 | 11 | 86% | 76.45 | 0.0 | |||||
| 04 | 00:35 | Calm | 16.09 | Fair | CLR | 11.7 | 9.3 | 85% | 76.48 | 0.0 | |||||||
| 04 | 00:15 | Calm | 16.09 | Fair | CLR | 11.7 | 9.7 | 88% | 76.45 | 0.0 | |||||||
| 03 | 23:55 | Calm | 16.09 | Fair | CLR | 11.2 | 9.2 | 88% | 76.48 | 0.0 | |||||||
| 03 | 23:35 | Calm | 16.09 | Fair | CLR | 11.4 | 9.4 | 88% | 76.5 | 0.0 | |||||||
| 03 | 23:15 | Calm | 16.09 | Fair | CLR | 11.5 | 9.7 | 89% | 76.5 | 0.0 | |||||||
| 03 | 22:55 | Calm | 16.09 | Fair | CLR | 11.2 | 9.5 | 89% | 76.5 | 0.0 | |||||||
| 03 | 22:35 | Calm | 16.09 | Fair | CLR | 11.7 | 9.5 | 87% | 76.5 | 0.0 | |||||||
| 03 | 22:15 | Calm | 16.09 | Fair | CLR | 11.8 | 9.6 | 87% | 76.5 | 0.0 | |||||||
| 03 | 21:55 | Calm | 16.09 | Fair | CLR | 13.1 | 9.6 | 80% | 76.5 | 0.0 | |||||||
| 03 | 21:35 | Calm | 16.09 | Fair | CLR | 13.1 | 10 | 82% | 76.5 | 0.0 | |||||||
| 03 | 21:15 | Calm | 16.09 | Fair | CLR | 13.3 | 9.9 | 80% | 76.48 | 0.0 | |||||||
| 03 | 20:55 | Calm | 16.09 | Fair | CLR | 14.2 | 9.9 | 76% | 76.48 | 0.0 | |||||||
| 03 | 20:35 | Calm | 16.09 | Fair | CLR | 14.1 | 10.3 | 78% | 76.45 | 0.0 | |||||||
| 03 | 20:15 | Calm | 16.09 | Fair | CLR | 16.4 | 9 | 62% | 76.45 | 0.0 | |||||||
| 03 | 19:55 | SE 6 | 16.09 | Fair | CLR | 17.3 | 8.9 | 58% | 76.45 | 0.0 | |||||||
| 03 | 19:35 | SE 6 | 16.09 | Fair | CLR | 18.5 | 8.8 | 53% | 76.43 | 0.0 | |||||||
| 03 | 19:15 | S 6 | 16.09 | Fair | CLR | 20.4 | 7.8 | 44% | 76.45 | 0.0 | |||||||
| 03 | 18:55 | Calm | 16.09 | Fair | CLR | 21.5 | 5.9 | 23.5 | 21.5 | 36% | 76.43 | 0.0 | |||||
| 03 | 18:35 | E 6 | 16.09 | Fair | CLR | 22.1 | 4.7 | 32% | 76.43 | 0.0 | |||||||
| 03 | 18:15 | Calm | 16.09 | Fair | CLR | 22.5 | 4.1 | 30% | 76.45 | 0.0 | |||||||
| 03 | 17:55 | E 6 | 16.09 | Fair | CLR | 22.6 | 3.8 | 29% | 76.45 | 0.0 | |||||||
| 03 | 17:35 | Calm | 16.09 | Fair | CLR | 23 | 3.8 | 29% | 76.45 | 0.0 | |||||||
| 03 | 17:15 | E 7 | 16.09 | Fair | CLR | 23 | 3.7 | 28% | 76.45 | 0.0 | |||||||
| 03 | 16:55 | NE 9 | 16.09 | Fair | CLR | 23 | 3.4 | 28% | 76.48 | 0.0 | |||||||
| 03 | 16:35 | E 6 | 16.09 | Fair | CLR | 23 | 2.9 | 27% | 76.5 | 0.0 | |||||||
| 03 | 16:15 | N 11 | 16.09 | Fair | CLR | 23 | 2.2 | 26% | 76.5 | 0.0 | |||||||
| 03 | 15:55 | NE 7 | 16.09 | Fair | CLR | 23.1 | 3 | 27% | 76.53 | 0.0 | |||||||
| 03 | 15:35 | NE 9 | 16.09 | Fair | CLR | 23.1 | 3 | 27% | 76.56 | 0.0 | |||||||
| 03 | 15:15 | NE 7 | 16.09 | Fair | CLR | 23 | 2.9 | 27% | 76.58 | 0.0 | |||||||
| 03 | 14:55 | NE 7 | 16.09 | Fair | CLR | 23.1 | 3.5 | 28% | 76.61 | 0.0 | |||||||
| 03 | 14:35 | E 6 | 16.09 | Fair | CLR | 22.8 | 2.5 | 26% | 76.63 | 0.0 | |||||||
| 03 | 14:15 | NE 9 | 16.09 | Fair | CLR | 22.8 | 2.8 | 27% | 76.63 | 0.0 | |||||||
| 03 | 13:55 | E 7 | 16.09 | Fair | CLR | 23 | 3.5 | 28% | 76.63 | 0.0 | |||||||
| 03 | 13:35 | NE 9 | 16.09 | Fair | CLR | 22.7 | 2.6 | 27% | 76.63 | 0.0 | |||||||
| 03 | 13:15 | NE 7 | 16.09 | Fair | CLR | 22.6 | 2.5 | 27% | 76.66 | 0.0 | |||||||
| 03 | 12:55 | NE 7 | 16.09 | Fair | CLR | 22.7 | 3.6 | 22.8 | 12.5 | 29% | 76.71 | 0.0 | |||||
| 03 | 12:35 | N 6 | 16.09 | Fair | CLR | 22.6 | 3.2 | 28% | 76.73 | 0.0 | |||||||
| 03 | 12:15 | N 11 | 16.09 | Fair | CLR | 22.3 | 5.3 | 33% | 76.73 | 0.0 | |||||||
| 03 | 11:55 | NE 11 | 16.09 | Fair | CLR | 22.6 | 5.1 | 32% | 76.76 | 0.0 | |||||||
| 03 | 11:35 | NE 9 | 16.09 | Fair | CLR | 22.2 | 4 | 31% | 76.76 | 0.0 | |||||||
| 03 | 11:15 | NE 13 | 16.09 | Fair | CLR | 22.6 | 4.1 | 30% | 76.76 | 0.0 | |||||||
| 03 | 10:55 | NE 11 | 16.09 | Fair | CLR | 22.1 | 2.9 | 28% | 76.76 | 0.0 | |||||||
| 03 | 10:35 | NE 15 | 16.09 | Fair | CLR | 22 | 2.7 | 28% | 76.73 | 0.0 | |||||||
| 03 | 10:15 | NE 13 | 16.09 | Fair | CLR | 21.5 | 4.5 | 33% | 76.73 | 0.0 | |||||||
| 03 | 09:35 | NE 9 | 16.09 | Fair | CLR | 21.2 | 6.8 | 39% | 76.71 | 0.0 | |||||||
| 03 | 09:15 | NE 13 | 16.09 | Fair | CLR | 20.9 | 7.3 | 42% | 76.71 | 0.0 | |||||||
| 03 | 08:55 | NE 11 | 16.09 | Fair | CLR | 20.5 | 8 | 45% | 76.68 | 0.0 | |||||||
| 03 | 08:35 | NE 11 | 16.09 | Fair | CLR | 19.9 | 8.8 | 49% | 76.66 | 0.0 | |||||||
| 03 | 08:15 | NE 7 | 16.09 | Fair | CLR | 19.5 | 9.5 | 53% | 76.66 | 0.0 | |||||||
| 03 | 07:55 | NE 6 | 16.09 | Fair | CLR | 19 | 9.7 | 55% | 76.66 | 0.0 | |||||||
| 03 | 07:35 | Calm | 16.09 | Fair | CLR | 17.5 | 10.6 | 64% | 76.63 | 0.0 | |||||||
| 03 | 07:15 | Calm | 16.09 | Fair | CLR | 13.4 | 10.2 | 81% | 76.61 | 0.0 | |||||||
| 03 | 06:55 | Calm | 16.09 | Fair | CLR | 12.2 | 9.7 | 18.5 | 10.3 | 85% | 76.58 | 0.0 | |||||
| 03 | 06:35 | Calm | 16.09 | Fair | CLR | 10.3 | 8.5 | 89% | 76.58 | 0.0 | |||||||
| 03 | 06:15 | Calm | 16.09 | Fair | CLR | 11.4 | 8.8 | 84% | 76.56 | 0.0 | |||||||
| 03 | 05:55 | Calm | 16.09 | Fair | CLR | 11.3 | 9 | 86% | 76.58 | 0.0 | |||||||
| 03 | 05:35 | Calm | 16.09 | Fair | CLR | 12.5 | 9 | 79% | 76.58 | 0.0 | |||||||
| 03 | 05:15 | Calm | 16.09 | Fair | CLR | 14.1 | 9 | 72% | 76.56 | 0.0 | |||||||
| 03 | 04:55 | Calm | 16.09 | Fair | CLR | 16.2 | 9.5 | 65% | 76.56 | 0.0 | |||||||
| 03 | 04:35 | NE 6 | 16.09 | Fair | CLR | 16.1 | 9 | 63% | 76.56 | 0.0 | |||||||
| 03 | 04:15 | NE 6 | 16.09 | Fair | CLR | 16.2 | 8.1 | 59% | 76.58 | 0.0 | |||||||
| 03 | 03:55 | NE 6 | 16.09 | Fair | CLR | 16.3 | 7.7 | 57% | 76.56 | 0.0 | |||||||
| 03 | 03:35 | NE 6 | 16.09 | Fair | CLR | 15.6 | 8.1 | 61% | 76.56 | 0.0 | |||||||
| 03 | 03:15 | NE 7 | 16.09 | Fair | CLR | 16.6 | 7.7 | 56% | 76.56 | 0.0 | |||||||
| 03 | 02:55 | NE 7 | 16.09 | Fair | CLR | 17 | 8 | 56% | 76.56 | 0.0 | |||||||
| 03 | 02:35 | NE 6 | 16.09 | Fair | CLR | 17.4 | 7.7 | 53% | 76.53 | 0.0 | |||||||
| 03 | 02:15 | NE 7 | 16.09 | Fair | CLR | 17.6 | 7.5 | 52% | 76.5 | 0.0 | |||||||
| 03 | 01:55 | N 11 | 16.09 | Fair | CLR | 18.1 | 7.1 | 49% | 76.5 | 0.0 | |||||||
| 03 | 01:35 | N 13 | 16.09 | Fair | CLR | 18.5 | 6.5 | 46% | 76.5 | 0.0 | |||||||
| 03 | 01:15 | N 7 | 16.09 | Fair | CLR | 17.7 | 8.2 | 54% | 76.5 | 0.0 | |||||||
| 03 | 00:55 | N 7 | 16.09 | Fair | CLR | 17.5 | 8.3 | 21 | 17.4 | 55% | 76.5 | 0.0 | |||||
| 03 | 00:35 | N 9 | 16.09 | Fair | CLR | 17.7 | 8.7 | 56% | 76.48 | 0.0 | |||||||
| 03 | 00:15 | N 9 | 16.09 | Fair | CLR | 18.3 | 8.6 | 53% | 76.48 | 0.0 | |||||||
| 02 | 23:55 | N 11 | 16.09 | Fair | CLR | 18.7 | 8.4 | 51% | 76.48 | 0.0 | |||||||
| 02 | 23:35 | N 9 | 16.09 | Fair | CLR | 18.9 | 8.2 | 50% | 76.45 | 0.0 | |||||||
| 02 | 23:15 | N 11 | 16.09 | Fair | CLR | 18.9 | 8.3 | 50% | 76.43 | 0.0 | |||||||
| 02 | 22:55 | N 9 | 16.09 | Fair | CLR | 18.9 | 8.2 | 50% | 76.43 | 0.0 | |||||||
| 02 | 22:35 | N 15 | 16.09 | Fair | CLR | 19.4 | 7.7 | 47% | 76.4 | 0.0 | |||||||
| 02 | 22:15 | N 13 | 16.09 | Fair | CLR | 19.4 | 8 | 48% | 76.43 | 0.0 | |||||||
| 02 | 21:55 | N 11 | 16.09 | Fair | CLR | 19.5 | 9 | 51% | 76.4 | 0.0 | |||||||
| 02 | 21:35 | N 11 | 16.09 | Fair | CLR | 19.4 | 8.9 | 51% | 76.38 | 0.0 | |||||||
| 02 | 21:15 | N 13 | 16.09 | Fair | CLR | 19.3 | 8.7 | 50% | 76.35 | 0.0 | |||||||
| 02 | 20:55 | N 15 | 16.09 | Fair | CLR | 19.4 | 8.3 | 49% | 76.33 | 0.0 | |||||||
| 02 | 20:35 | N 17 G 26 | 16.09 | Fair | CLR | 19.6 | 7.7 | 46% | 76.33 | 0.0 | |||||||
| 02 | 20:15 | N 13 | 16.09 | Fair | CLR | 19.2 | 7.5 | 47% | 76.3 | 0.0 | |||||||
| 02 | 19:55 | N 15 | 16.09 | Fair | CLR | 19.8 | 7.1 | 44% | 76.3 | 0.0 | |||||||
| 02 | 19:35 | N 20 G 28 | 16.09 | Fair | CLR | 19.8 | 7.1 | 44% | 76.28 | 0.0 | |||||||
| 02 | 19:15 | N 19 G 26 | 16.09 | Fair | CLR | 20.7 | 6.1 | 39% | 76.25 | 0.0 | |||||||
| 02 | 18:55 | N 17 G 35 | 16.09 | Fair | CLR | 21.1 | 6 | 22.9 | 20.5 | 38% | 76.25 | 0.0 | |||||
| 02 | 18:35 | N 22 G 31 | 16.09 | Fair | CLR | 21.5 | 6.1 | 37% | 76.23 | 0.0 | |||||||
| 02 | 18:15 | N 24 G 31 | 16.09 | Fair | CLR | 21.7 | 6 | 36% | 76.2 | 0.0 | |||||||
| 02 | 17:55 | N 22 G 31 | 16.09 | Fair | CLR | 22 | 6.3 | 36% | 76.17 | 0.0 | |||||||
| 02 | 17:35 | N 28 G 37 | 16.09 | Fair | CLR | 22.1 | 6.9 | 38% | 76.17 | 0.0 | |||||||
| 02 | 17:15 | N 30 G 39 | 16.09 | Fair | CLR | 22.3 | 7.6 | 39% | 76.17 | 0.0 | |||||||
| 02 | 16:55 | N 30 G 37 | 16.09 | Fair | CLR | 22.5 | 8.4 | 41% | 76.15 | 0.0 | |||||||
| 02 | 16:35 | N 28 G 41 | 16.09 | Fair | CLR | 22.5 | 8.9 | 42% | 76.15 | 0.0 | |||||||
| 02 | 16:15 | N 26 G 35 | 16.09 | Fair | CLR | 22.4 | 10.1 | 46% | 76.15 | 0.0 | |||||||
| 02 | 15:55 | N 30 G 35 | 16.09 | Fair | CLR | 22.4 | 10.1 | 46% | 76.17 | 0.0 | |||||||
| 02 | 15:35 | N 22 G 37 | 16.09 | Partly Cloudy | SCT040 | 22.6 | 11.4 | 49% | 76.17 | 0.0 | |||||||
| 02 | 15:15 | N 30 G 39 | 16.09 | Partly Cloudy | SCT040 | 22.3 | 11.4 | 50% | 76.2 | 0.0 | |||||||
| 02 | 14:55 | N 35 G 44 | 16.09 | Partly Cloudy and Breezy | SCT040 | 22.4 | 11.7 | 51% | 76.2 | 0.0 | |||||||
| 02 | 14:35 | N 19 G 37 | 16.09 | Partly Cloudy | SCT040 | 22.4 | 11.9 | 52% | 76.2 | 0.0 | |||||||
| 02 | 14:15 | N 26 G 39 | 16.09 | Partly Cloudy | SCT038 | 21.9 | 11.4 | 51% | 76.2 | 0.0 | |||||||
| 02 | 13:55 | N 22 G 31 | 16.09 | Partly Cloudy | SCT038 | 21.7 | 11.7 | 53% | 76.2 | 0.0 | |||||||
| 02 | 13:35 | N 30 G 35 | 16.09 | Partly Cloudy | SCT036 | 21.5 | 11.4 | 53% | 76.2 | 0.0 | |||||||
| 02 | 13:15 | N 26 G 35 | 16.09 | Partly Cloudy | SCT032 | 21.1 | 11.7 | 55% | 76.2 | 0.0 | |||||||
| 02 | 12:55 | N 20 G 30 | 16.09 | Mostly Cloudy | BKN030 | 20.5 | 12.3 | 20.7 | 14.7 | 59% | 76.23 | 0.0 | 0.18 | ||||
| 02 | 12:35 | N 20 G 33 | 16.09 | Mostly Cloudy | BKN028 | 20 | 12 | 60% | 76.23 | 0.0 | |||||||
| 02 | 12:15 | N 17 G 30 | 16.09 | Mostly Cloudy | BKN028 BKN033 | 19.4 | 11.8 | 62% | 76.25 | 0.0 | |||||||
| 02 | 11:55 | N 17 G 30 | 16.09 | Partly Cloudy | SCT024 | 19.2 | 11.3 | 60% | 76.28 | 0.0 | |||||||
| 02 | 11:35 | N 20 G 30 | 16.09 | Mostly Cloudy | BKN024 | 18.8 | 12 | 65% | 76.3 | 0.0 | |||||||
| 02 | 11:15 | N 17 G 28 | 16.09 | Mostly Cloudy | BKN026 | 18.7 | 11.1 | 61% | 76.3 | 0.0 | |||||||
| 02 | 10:55 | N 17 G 30 | 16.09 | Mostly Cloudy | BKN024 | 18.8 | 11.7 | 64% | 76.3 | 0.0 | |||||||
| 02 | 10:35 | NE 22 G 37 | 16.09 | Partly Cloudy | SCT020 | 18.1 | 11.4 | 65% | 76.25 | 0.0 | |||||||
| 02 | 10:15 | N 20 G 28 | 16.09 | Mostly Cloudy | BKN020 BKN034 | 17.9 | 12.1 | 69% | 76.23 | 0.0 | |||||||
| 02 | 09:55 | NE 15 G 31 | 16.09 | Mostly Cloudy | BKN018 BKN034 | 17.3 | 11.9 | 71% | 76.2 | 0.0 | 0.05 | 0.18 | |||||
| 02 | 09:35 | NE 20 G 31 | 16.09 | Overcast | OVC014 | 16.7 | 12.1 | 74% | 76.17 | 0.0 | 0.05 | ||||||
| 02 | 09:15 | N 22 G 31 | 16.09 | Overcast | OVC012 | 15.7 | 12.1 | 79% | 76.17 | 0.0 | 0.03 | ||||||
| 02 | 08:55 | N 22 G 35 | 16.09 | Overcast | OVC012 | 15.6 | 12 | 79% | 76.15 | 0.0 | 0.05 | ||||||
| 02 | 08:35 | N 22 G 30 | 16.09 | Overcast | OVC012 | 15.3 | 12.1 | 81% | 76.12 | 0.0 | 0.05 | ||||||
| 02 | 08:15 | NE 17 G 30 | 16.09 | Overcast | OVC012 | 15 | 11.8 | 81% | 76.12 | 0.0 | 0.03 | ||||||
| 02 | 07:55 | N 24 G 37 | 16.09 | Overcast | OVC010 | 14.9 | 12 | 83% | 76.12 | 0.0 | 0.08 | ||||||
| 02 | 07:35 | N 22 G 30 | 16.09 | Overcast | OVC010 | 14.8 | 12 | 83% | 76.1 | 0.0 | 0.05 | ||||||
| 02 | 07:15 | N 20 G 33 | 16.09 | Overcast | OVC010 | 14.7 | 12 | 84% | 76.1 | 0.0 | 0.03 | ||||||
| 02 | 06:55 | N 20 G 35 | 16.09 | Overcast | OVC010 | 14.7 | 12.1 | 17.9 | 14.1 | 85% | 76.05 | 0.0 | 0.08 | 0.76 | |||
| 02 | 06:35 | N 17 G 35 | 16.09 | Overcast | OVC010 | 14.6 | 12.1 | 85% | 76.02 | 0.0 | 0.05 | ||||||
| 02 | 06:15 | N 20 G 37 | 16.09 | Overcast | OVC010 | 14.3 | 12 | 86% | 76 | 0.0 | 0.03 | ||||||
| 02 | 05:55 | N 28 G 43 | 16.09 | Overcast | OVC010 | 14.2 | 11.8 | 86% | 75.97 | 0.0 | 0.1 | ||||||
| 02 | 05:35 | N 22 G 35 | 16.09 | Overcast | OVC008 | 14.2 | 12 | 87% | 75.95 | 0.0 | 0.08 | ||||||
| 02 | 05:15 | N 22 G 37 | 16.09 | Overcast | OVC008 | 14.6 | 12.6 | 88% | 75.92 | 0.0 | 0.03 | ||||||
| 02 | 04:55 | N 22 G 31 | 16.09 | Overcast | OVC008 | 15 | 12.9 | 87% | 75.9 | 0.0 | 0.1 | ||||||
| 02 | 04:35 | N 13 | 16.09 | Overcast | OVC008 | 15.3 | 13.5 | 89% | 75.84 | 0.0 | 0.08 | ||||||
| 02 | 04:15 | N 19 | 16.09 | Overcast | BKN008 BKN020 OVC060 | 15.2 | 13.5 | 90% | 75.87 | 0.0 | 0.03 | ||||||
| 02 | 03:55 | N 17 G 30 | 16.09 | Light Drizzle | SCT010 BKN020 OVC060 | 15.2 | 13.3 | 89% | 75.9 | 0.0 | 0.13 | 0.48 | |||||
| 02 | 03:35 | N 20 G 31 | 16.09 | Light Rain | BKN010 BKN016 OVC050 | 15.5 | 13.5 | 88% | 75.92 | 0.0 | 0.08 | ||||||
| 02 | 03:15 | N 19 G 30 | 16.09 | Thunderstorm Light Rain in Vicinity | OVC010 | 15.4 | 13.7 | 90% | 75.9 | 0.0 | 0.03 | ||||||
| 02 | 02:55 | N 19 G 33 | 16.09 | Thunderstorm in Vicinity | OVC008 | 15.9 | 14.5 | 91% | 75.87 | 0.0 | 0.15 | ||||||
| 02 | 02:35 | N 24 G 33 | 16.09 | Thunderstorm in Vicinity | OVC006 | 16 | 14.7 | 92% | 75.87 | 0.0 | 0.1 | ||||||
| 02 | 02:15 | N 28 G 41 | 16.09 | Thunderstorm in Vicinity | OVC006 | 16 | 14.7 | 92% | 75.92 | 0.0 | 0.05 | ||||||
| 02 | 01:55 | N 24 G 31 | 16.09 | Light Rain | OVC006 | 16.5 | 15 | 91% | 75.87 | 0.0 | 0.2 | ||||||
| 02 | 01:35 | N 19 G 26 | 16.09 | Thunderstorm Light Rain in Vicinity | BKN006 OVC014 | 17.1 | 15.7 | 92% | 75.87 | 0.0 | 0.13 | ||||||
| 02 | 01:15 | N 13 G 28 | 16.09 | Thunderstorm Light Rain in Vicinity | BKN008 OVC014 | 17.7 | 16.3 | 92% | 75.87 | 0.0 | 0.08 | ||||||
| 02 | 00:55 | N 11 | 4.02 | Thunderstorm Rain | OVC008 | 17.9 | 16.5 | 18.3 | 16.5 | 92% | 75.92 | 0.0 | 0.15 | 0.79 | |||
| 02 | 00:35 | NE 17 G 30 | 16.09 | Thunderstorm Light Rain | OVC008 | 18 | 16.6 | 92% | 75.84 | 0.0 | 0.08 | ||||||
| 02 | 00:15 | NE 15 G 28 | 16.09 | Thunderstorm Light Rain in Vicinity | OVC010 | 18.2 | 16.8 | 92% | 75.84 | 0.0 | 0.05 | ||||||
| 01 | 23:55 | NE 13 | 16.09 | Rain | OVC010 | 18.3 | 17 | 92% | 75.87 | 0.0 | 0.15 | ||||||
| 01 | 23:35 | NE 9 | 16.09 | Thunderstorm Light Rain in Vicinity | BKN009 OVC014 | 18.2 | 16.8 | 92% | 75.9 | 0.0 | 0.1 | ||||||
| 01 | 23:15 | NE 17 G 28 | 6.44 | Thunderstorm Heavy Rain | BKN009 BKN013 OVC039 | 18.1 | 16.6 | 91% | 75.87 | 0.0 | 0.05 | ||||||
| 01 | 22:55 | NE 15 G 37 | 16.09 | Thunderstorm Light Rain | SCT009 OVC037 | 18 | 16.4 | 90% | 75.79 | 0.0 | 0.1 | ||||||
| 01 | 22:35 | NE 19 G 31 | 16.09 | Thunderstorm in Vicinity | BKN009 OVC035 | 18 | 16.4 | 90% | 75.84 | 0.0 | 0.08 | ||||||
| 01 | 22:15 | NE 15 G 37 | 16.09 | Overcast | OVC009 | 18 | 16.3 | 90% | 75.87 | 0.0 | 0.03 | ||||||
| 01 | 21:55 | NE 19 G 37 | 16.09 | Overcast | OVC007 | 17.8 | 16.3 | 91% | 75.9 | 0.0 | 0.13 | 0.36 | |||||
| 01 | 21:35 | NE 17 G 33 | 16.09 | Overcast | OVC007 | 17.4 | 16 | 92% | 75.84 | 0.0 | 0.1 | ||||||
| 01 | 21:15 | NE 19 G 37 | 16.09 | Overcast | OVC007 | 16.9 | 15.5 | 92% | 75.84 | 0.0 | 0.05 | ||||||
| 01 | 20:55 | NE 24 G 39 | 16.09 | Light Rain | OVC007 | 16.7 | 15.4 | 92% | 75.82 | 0.0 | 0.13 | ||||||
| 01 | 20:35 | NE 22 G 39 | 11.27 | Rain | OVC007 | 16.6 | 15.2 | 92% | 75.79 | 0.0 | 0.08 | ||||||
| 01 | 20:15 | NE 20 G 39 | 11.27 | Rain | OVC007 | 16.9 | 15.4 | 91% | 75.84 | 0.0 | 0.03 | ||||||
| 01 | 19:55 | NE 26 G 37 | 16.09 | Thunderstorm Light Rain in Vicinity | OVC007 | 17 | 15.6 | 92% | 75.84 | 0.0 | 0.1 | ||||||
| 01 | 19:35 | N 28 G 39 | 11.27 | Thunderstorm Light Rain in Vicinity | BKN007 OVC010 | 17.1 | 15.6 | 91% | 75.79 | 0.0 | 0.08 | ||||||
| 01 | 19:15 | N 22 G 37 | 16.09 | Thunderstorm Light Rain in Vicinity | OVC010 | 17.5 | 15.9 | 90% | 75.74 | 0.0 | 0.03 | ||||||
| 01 | 18:55 | N 24 G 37 | 16.09 | Thunderstorm Light Rain | OVC010 | 17.5 | 15.7 | 23.6 | 17.4 | 89% | 75.74 | 0.0 | 0.03 | 0.38 | |||
| 01 | 18:35 | NE 24 G 39 | 16.09 | Overcast | OVC010 | 17.7 | 16 | 90% | 75.72 | 0.0 | 0.03 | ||||||
| 01 | 18:15 | NE 20 G 39 | 16.09 | Light Rain | OVC010 | 17.7 | 16.1 | 90% | 75.72 | 0.0 | |||||||
| 01 | 17:55 | NE 26 G 41 | 16.09 | Light Rain | BKN010 OVC020 | 17.9 | 16.2 | 90% | 75.74 | 0.0 | 0.18 | ||||||
| 01 | 17:35 | N 26 G 39 | 16.09 | Light Rain | OVC008 | 18.1 | 16.5 | 90% | 75.74 | 0.0 | 0.13 | ||||||
| 01 | 17:15 | N 28 G 37 | 16.09 | Light Rain | OVC008 | 18.3 | 16.6 | 90% | 75.72 | 0.0 | 0.05 | ||||||
| 01 | 16:55 | N 30 G 43 | 8.05 | Rain | SCT008 BKN016 OVC027 | 18.7 | 16.7 | 88% | 75.69 | 0.0 | 0.1 | ||||||
| 01 | 16:35 | N 31 G 44 | 16.09 | Light Rain | BKN007 BKN012 OVC025 | 20.1 | 17.8 | 87% | 75.69 | 0.0 | |||||||
| 01 | 16:15 | N 31 G 39 | 16.09 | Overcast | OVC007 | 21.6 | 19.3 | 87% | 75.72 | 0.0 | |||||||
| 01 | 15:55 | N 17 G 26 | 16.09 | Overcast | BKN007 BKN011 OVC020 | 22.8 | 20.5 | 87% | 75.69 | 0.0 | 0.08 | ||||||
| 01 | 15:35 | NE 9 | 16.09 | Overcast | SCT009 BKN024 OVC038 | 23.4 | 21 | 86% | 75.67 | 0.0 | |||||||
| 01 | 15:15 | E 11 | 16.09 | Overcast | SCT009 BKN027 OVC048 | 23.6 | 21.1 | 86% | 75.69 | 0.0 | |||||||
| 01 | 14:55 | E 9 | 16.09 | Overcast | BKN007 BKN031 OVC050 | 23.5 | 21.5 | 89% | 75.72 | 0.0 | |||||||
| 01 | 14:35 | E 13 | 16.09 | Overcast | OVC007 | 22.8 | 20.9 | 89% | 75.72 | 0.0 | |||||||
| 01 | 14:15 | E 6 | 16.09 | Overcast | OVC007 | 22.5 | 20.5 | 89% | 75.74 | 0.0 | |||||||
| 01 | 13:55 | E 15 | 16.09 | Overcast | OVC007 | 22.5 | 20.5 | 89% | 75.72 | 0.0 | 0.08 | ||||||
| 01 | 13:35 | NE 11 | 16.09 | Overcast | SCT007 BKN012 OVC055 | 23.1 | 21.1 | 89% | 75.74 | 0.0 | 0.08 | ||||||
| 01 | 13:15 | E 6 | 11.27 | Light Rain | SCT006 BKN014 OVC060 | 22 | 20.3 | 90% | 75.77 | 0.0 | 0.05 | ||||||
| 01 | 12:55 | E 9 | 11.27 | Light Rain | SCT006 OVC012 | 21.4 | 19.7 | 25.2 | 21.2 | 90% | 75.84 | 0.0 | 1.12 | 1.12 | |||
| 01 | 12:35 | E 19 G 31 | 2.41 | Thunderstorm Heavy Rain | SCT004 OVC009 | 21.5 | 19.6 | 89% | 75.82 | 0.0 | 0.86 | ||||||
| 01 | 12:15 | Calm | 4.83 | Thunderstorm Heavy Rain | OVC011 | 23.9 | 21.5 | 86% | 24 | 75.9 | 0.0 | 0.05 | |||||
| 01 | 11:55 | NE 7 | 16.09 | Thunderstorm in Vicinity | OVC011 | 24 | 21.3 | 85% | 24 | 75.84 | 0.0 | ||||||
| 01 | 11:35 | NE 11 | 16.09 | Light Drizzle | OVC011 | 24.5 | 21.6 | 84% | 25 | 75.87 | 0.0 | ||||||
| 01 | 11:15 | NE 11 | 16.09 | Light Rain | BKN011 BKN065 BKN090 | 24.2 | 21.4 | 84% | 24 | 75.84 | 0.0 | ||||||
| 01 | 10:55 | E 7 | 16.09 | Partly Cloudy | SCT010 SCT100 SCT120 | 24.5 | 21.2 | 82% | 25 | 75.92 | 0.0 | ||||||
| 01 | 10:35 | NE 6 | 16.09 | Mostly Cloudy | BKN010 BKN044 BKN100 | 24.5 | 21.2 | 82% | 25 | 75.92 | 0.0 | ||||||
| 01 | 10:15 | NE 7 | 16.09 | Overcast | OVC012 | 24.4 | 21.1 | 82% | 25 | 75.95 | 0.0 | ||||||
| 01 | 09:55 | NE 9 | 16.09 | Mostly Cloudy | BKN013 BKN017 | 24.2 | 21 | 82% | 25 | 75.95 | 0.0 | ||||||
| 01 | 09:35 | E 9 | 16.09 | Fair | CLR | 24.7 | 20.8 | 79% | 25 | 75.92 | 0.0 | ||||||
| 01 | 09:15 | E 15 | 16.09 | Partly Cloudy | SCT008 SCT024 | 24 | 20.9 | 83% | 24 | 75.84 | 0.0 | ||||||
| 01 | 08:55 | NE 13 | 16.09 | Overcast | BKN008 BKN026 OVC060 | 23.8 | 20.6 | 82% | 75.9 | 0.0 | |||||||
| 01 | 08:35 | NE 9 | 16.09 | Overcast | SCT008 BKN012 OVC029 | 23.1 | 20.5 | 85% | 75.92 | 0.0 | |||||||
| 01 | 08:15 | NE 13 | 16.09 | Overcast | OVC008 | 22.6 | 20.2 | 86% | 75.87 | 0.0 | |||||||
| 01 | 07:55 | NE 11 | 16.09 | Overcast | OVC008 | 22.5 | 20 | 86% | 75.92 | 0.0 | |||||||
| 01 | 07:35 | NE 11 | 16.09 | Overcast | OVC008 | 22.5 | 20.1 | 86% | 75.92 | 0.0 | |||||||
| 01 | 07:15 | NE 15 | 16.09 | Overcast | OVC006 | 22.5 | 20.2 | 87% | 75.87 | 0.0 | |||||||
| 01 | 06:55 | NE 13 | 16.09 | Overcast | OVC006 | 22.9 | 20.6 | 23 | 20.3 | 87% | 75.84 | 0.0 | |||||
| 01 | 06:35 | NE 9 | 16.09 | Overcast | OVC006 | 22.7 | 20.6 | 88% | 75.84 | 0.0 | |||||||
| 01 | 06:15 | NE 7 | 16.09 | Mostly Cloudy | BKN006 | 22.6 | 20.6 | 89% | 75.82 | 0.0 | |||||||
| 01 | 05:55 | NE 7 | 16.09 | Overcast | OVC006 | 22.6 | 20.5 | 88% | 75.82 | 0.0 | |||||||
| 01 | 05:35 | NE 9 | 16.09 | Overcast | OVC006 | 22.6 | 20.5 | 88% | 75.82 | 0.0 | |||||||
| 01 | 05:15 | N 11 | 16.09 | Overcast | OVC006 | 23 | 20.8 | 87% | 75.84 | 0.0 | |||||||
| 01 | 04:55 | NE 11 | 16.09 | Overcast | OVC008 | 23 | 20.9 | 88% | 75.82 | 0.0 | |||||||
| 01 | 04:35 | NE 7 | 16.09 | Partly Cloudy | SCT008 SCT018 | 23 | 20.7 | 87% | 75.82 | 0.0 | |||||||
| 01 | 04:15 | NE 6 | 16.09 | Partly Cloudy | SCT008 SCT012 SCT022 | 23 | 20.5 | 86% | 75.82 | 0.0 | |||||||
| 01 | 03:55 | N 11 | 16.09 | Mostly Cloudy | SCT010 BKN022 | 23 | 20.3 | 85% | 75.79 | 0.0 | |||||||
| 01 | 03:35 | NE 9 | 16.09 | Partly Cloudy | SCT010 SCT022 | 22.8 | 19.5 | 82% | 75.82 | 0.0 | |||||||
| 01 | 03:15 | NE 7 | 16.09 | Fair | CLR | 22.7 | 19.8 | 84% | 75.79 | 0.0 | |||||||
| 01 | 02:55 | NE 6 | 16.09 | Fair | CLR | 22.2 | 19.5 | 85% | 75.77 | 0.0 | |||||||
| 01 | 02:35 | NE 6 | 16.09 | Fair | CLR | 21.4 | 19.2 | 87% | 75.79 | 0.0 | |||||||
| 01 | 02:15 | Calm | 0.00 | NULL | NULL | 21.1 | 19.2 | 89% | 75.84 | 0.0 | |||||||
| 01 | 01:55 | Calm | 0.00 | NULL | NULL | 20.5 | 18.6 | 89% | 75.84 | 0.0 | |||||||
| 01 | 01:35 | Calm | 0.00 | NULL | NULL | 21 | 18.8 | 87% | 75.84 | 0.0 | |||||||
| Date | Time (cdt) | Wind (kph) | Vis. (km) | Weather | Sky Cond. | Air | Dwpt | Max. | Min. | Relative Humidity | Wind Chill (°C) | Heat Index (°C) | altimeter (cm) | sea level (mb) | 1 hr | 3 hr | 6 hr |
| 6 hour | |||||||||||||||||
| Temperature (ºC) | Pressure | Precipitation (cm) | |||||||||||||||